Davilla, TX (76523)

2:06 AM CDT on July 08, 2015 (GMT -0500)
BioTech in Thrall, TX | | Change Station
CLOSE
Current Station
Personal Weather Station
Location: Thrall, TX
Elevation: 561 ft
Nearby Weather Stations

Elev 561 ft 30.59 °N, 97.30 °W | Updated 12 minutes ago

Overcast
Overcast
78.6 °F
Feels Like 82 °F
N
6.3
Wind Variable Wind from SW

Today
High -- | Low -- °F
--% Chance of Precip.
Yesterday
High -- | Low -- °F
Precip. -- in
6:32 AM 8:35 PM
Waning Gibbous, 56% visible
Pressure 29.96 in
Visibility 10.0 miles
Clouds Overcast 1300 ft
Heat Index 82 °F
Dew Point 76 °F
Humidity 93%
Rainfall 0.00 in
Snow Depth Not available.
UV 0 out of 12
Pollen 2.30 out of 12
Air Quality Not available.
Flu Activity Not available.
METAR KT35 080655Z AUTO 16008G14KT 10SM OVC013 26/24 A2996 RMK AO2 T02600242

More Conditions Fewer Conditions

Pressure 29.96 in
Visibility 10.0 miles
Clouds Overcast 1300 ft
Heat Index 82 °F
Dew Point 76 °F
Humidity 93%
Rainfall 0.00 in
Snow Depth Not available.
UV 0 out of 12
Pollen 2.30 out of 12
Air Quality Not available.
Flu Activity Not available.
METAR KT35 080655Z AUTO 16008G14KT 10SM OVC013 26/24 A2996 RMK AO2 T02600242

More Conditions Fewer Conditions

Nowcast | as of 11:35 PM CDT on July 7, 2015

Scattered showers and a few isolated thunderstorms will continue across parts of North Texas through late tonight. Areas from Comanche to Mineral Wells to Gainesville and west of there will see most of the rainfall over the next couple of hours. Locally heavy rainfall will be possible with these showers as they move northeast at 20 mph. Rainfall amounts up to 2 inches will be possible through late tonight.

×

10-Day Weather Forecast

×

Almanac

Astronomy

Jul. 08, 2015 Rise Set
Actual Time
Civil Twilight
Nautical Twilight
Astronomical Twilight
Moon
Length of Visible Light
Length of Day
Tomorrow will be .
, % of the Moon is Illuminated

Today's Extremes

State Highs State Lows

Community

WunderPhotos

Upload Photos

1,836,064 photos uploaded!

WunderBlogs® & News

Nearby

Air Quality

  Air Quality AQ Index Pollutant
Not available.

Snow Depth

Station Depth Elevation

Earthquake Activity

City Distance Mag. Time & Date
Minimum magnitude displayed is 2.5.

Coastal Water Temperatures

Place Temperature

Stations

Nearby Weather Stations

Station Location Temp. Windchill Dew Point Humidity Wind Precip. Elev Updated Type